Shin Puropan Maru — JG5508 — position and weather

sailwx.info

Track history (hours):
 
Tides and Currents Weather Stations Pressure Air Temp Water Temp Dewpoint Dewpoint Depression Visibility Wind Speed Wind Dir Waves Ship Positions

Shin Puropan Maru

Last reported at 2016-Sep-28 21:33 UTC. Time now 2016-Sep-30 04:58 UTC.
Position N 34°29' E 135°12'.

Length 66 m; draft 4.6 m.

Type: Ship (hazmat cat A). MMSI: 431100348.

Date/timePositionNaut miles runAvg speedWind from/ knotsBaromVisibWave heightAir tempDewpointWater temp
2016-Sep-28 21:33N 34°29' E 135°12'2311.3
2016-Sep-28 19:33N 34°08' E 135°01'33 0.7
2016-Sep-26 20:27N 34°36' E 135°23'0 0.1
2016-Sep-26 19:33N 34°36' E 135°23'0 0.0
2016-Sep-26 15:33N 34°36' E 135°23'0 0.0
2016-Sep-26 13:33N 34°36' E 135°23'2 0.9
2016-Sep-26 11:33N 34°34' E 135°22'3411.3
2016-Sep-26 08:33N 34°05' E 135°01'23910.4
2016-Sep-25 09:31N 35°07' E 139°41'2110.8
2016-Sep-25 07:33N 35°27' E 139°48'15 5.0
2016-Sep-25 04:31N 35°33' E 140°05'1 0.2
2016-Sep-25 00:14N 35°34' E 140°05'0 0.0
2016-Sep-24 22:32N 35°34' E 140°05'0 0.0
2016-Sep-24 21:20N 35°34' E 140°05'0 0.0
2016-Sep-24 19:32N 35°34' E 140°05'0 0.0
2016-Sep-24 18:32N 35°34' E 140°05'0 0.0
2016-Sep-24 17:32N 35°34' E 140°05'0 0.0
2016-Sep-24 16:32N 35°34' E 140°05'0 0.0
2016-Sep-24 14:32N 35°34' E 140°05'0 0.0
2016-Sep-24 12:32N 35°34' E 140°05'0 0.0
2016-Sep-24 10:20N 35°34' E 140°05'0 0.5
2016-Sep-24 09:33N 35°33' E 140°05'264 9.7
2016-Sep-23 06:31N 34°13' E 134°59'2211.2
2016-Sep-23 04:33N 34°31' E 135°14'6 6.1
2016-Sep-23 03:33N 34°36' E 135°19'0 0.2
2016-Sep-23 02:33N 34°36' E 135°19'3 0.2
2016-Sep-22 12:32N 34°36' E 135°23'218 7.0
2016-Sep-21 05:34N 35°19' E 139°43'19 9.7
2016-Sep-21 03:33N 35°36' E 139°55'0 0.0
2016-Sep-21 02:26N 35°36' E 139°55'0 0.0
2016-Sep-20 17:29N 35°36' E 139°55'0 0.0
2016-Sep-20 14:31N 35°36' E 139°55'0 0.0
2016-Sep-20 13:32N 35°36' E 139°55'0 0.0
2016-Sep-20 10:29N 35°36' E 139°55'0 0.0
2016-Sep-20 08:17N 35°36' E 139°55'0 0.0
2016-Sep-20 07:32N 35°36' E 139°55'0 0.0
2016-Sep-20 06:32N 35°36' E 139°55'0 0.0
2016-Sep-20 02:32N 35°36' E 139°55'0 0.0
2016-Sep-19 23:32N 35°36' E 139°55'0 0.0
2016-Sep-19 19:29N 35°36' E 139°55'0 0.0
2016-Sep-19 18:29N 35°36' E 139°55'0 0.0
2016-Sep-19 16:29N 35°36' E 139°55'0 0.0
2016-Sep-19 14:32N 35°36' E 139°55'0 0.0
2016-Sep-19 13:32N 35°36' E 139°55'0 0.0
2016-Sep-19 12:32N 35°36' E 139°55'0 0.0
2016-Sep-19 11:32N 35°36' E 139°55'0 0.0
2016-Sep-19 09:29N 35°36' E 139°55'2 1.0
2016-Sep-19 07:34N 35°35' E 139°57'7 6.9
2016-Sep-19 06:33N 35°33' E 140°05'0 0.0
2016-Sep-19 03:23N 35°33' E 140°05'4 4.7
2016-Sep-19 02:33N 35°33' E 140°00'2010.3
2016-Sep-19 00:33N 35°16' E 139°47'  
Track history (hours):
 
Tides and Currents Weather Stations Pressure Air Temp Water Temp Dewpoint Dewpoint Depression Visibility Wind Speed Wind Dir Waves Ship Positions

Shin Puropan Maru

Last reported at 2016-Sep-28 21:33 UTC. Time now 2016-Sep-30 04:58 UTC.
Position N 34°29' E 135°12'.

Length 66 m; draft 4.6 m.

Type: Ship (hazmat cat A). MMSI: 431100348.

Date/timePositionNaut miles runAvg speedWind from/ knotsBaromVisibWave heightAir tempDewpointWater temp
2016-Sep-28 21:33N 34°29' E 135°12'2311.3
2016-Sep-28 19:33N 34°08' E 135°01'33 0.7
2016-Sep-26 20:27N 34°36' E 135°23'0 0.1
2016-Sep-26 19:33N 34°36' E 135°23'0 0.0
2016-Sep-26 15:33N 34°36' E 135°23'0 0.0
2016-Sep-26 13:33N 34°36' E 135°23'2 0.9
2016-Sep-26 11:33N 34°34' E 135°22'3411.3
2016-Sep-26 08:33N 34°05' E 135°01'23910.4
2016-Sep-25 09:31N 35°07' E 139°41'2110.8
2016-Sep-25 07:33N 35°27' E 139°48'15 5.0
2016-Sep-25 04:31N 35°33' E 140°05'1 0.2
2016-Sep-25 00:14N 35°34' E 140°05'0 0.0
2016-Sep-24 22:32N 35°34' E 140°05'0 0.0
2016-Sep-24 21:20N 35°34' E 140°05'0 0.0
2016-Sep-24 19:32N 35°34' E 140°05'0 0.0
2016-Sep-24 18:32N 35°34' E 140°05'0 0.0
2016-Sep-24 17:32N 35°34' E 140°05'0 0.0
2016-Sep-24 16:32N 35°34' E 140°05'0 0.0
2016-Sep-24 14:32N 35°34' E 140°05'0 0.0
2016-Sep-24 12:32N 35°34' E 140°05'0 0.0
2016-Sep-24 10:20N 35°34' E 140°05'0 0.5
2016-Sep-24 09:33N 35°33' E 140°05'264 9.7
2016-Sep-23 06:31N 34°13' E 134°59'2211.2
2016-Sep-23 04:33N 34°31' E 135°14'6 6.1
2016-Sep-23 03:33N 34°36' E 135°19'0 0.2
2016-Sep-23 02:33N 34°36' E 135°19'3 0.2
2016-Sep-22 12:32N 34°36' E 135°23'218 7.0
2016-Sep-21 05:34N 35°19' E 139°43'19 9.7
2016-Sep-21 03:33N 35°36' E 139°55'0 0.0
2016-Sep-21 02:26N 35°36' E 139°55'0 0.0
2016-Sep-20 17:29N 35°36' E 139°55'0 0.0
2016-Sep-20 14:31N 35°36' E 139°55'0 0.0
2016-Sep-20 13:32N 35°36' E 139°55'0 0.0
2016-Sep-20 10:29N 35°36' E 139°55'0 0.0
2016-Sep-20 08:17N 35°36' E 139°55'0 0.0
2016-Sep-20 07:32N 35°36' E 139°55'0 0.0
2016-Sep-20 06:32N 35°36' E 139°55'0 0.0
2016-Sep-20 02:32N 35°36' E 139°55'0 0.0
2016-Sep-19 23:32N 35°36' E 139°55'0 0.0
2016-Sep-19 19:29N 35°36' E 139°55'0 0.0
2016-Sep-19 18:29N 35°36' E 139°55'0 0.0
2016-Sep-19 16:29N 35°36' E 139°55'0 0.0
2016-Sep-19 14:32N 35°36' E 139°55'0 0.0
2016-Sep-19 13:32N 35°36' E 139°55'0 0.0
2016-Sep-19 12:32N 35°36' E 139°55'0 0.0
2016-Sep-19 11:32N 35°36' E 139°55'0 0.0
2016-Sep-19 09:29N 35°36' E 139°55'2 1.0
2016-Sep-19 07:34N 35°35' E 139°57'7 6.9
2016-Sep-19 06:33N 35°33' E 140°05'0 0.0
2016-Sep-19 03:23N 35°33' E 140°05'4 4.7
2016-Sep-19 02:33N 35°33' E 140°00'2010.3
2016-Sep-19 00:33N 35°16' E 139°47'  

Dump ship's entire track history